Terminal Aerodrome Forecast
Issued by NWS Wichita, KS

Home | Current Version | Previous Version | Graphics & Text | Print | Product List | Glossary On
Versions: 1 2 3 4 5 6 7 8 9 10 11 12 13 14 15 16 17 18 19
000
FTUS43 KICT 070448 AAC
TAFICT
TAF AMD
KICT 070448Z 0705/0724 03015KT 4SM -SHRA BR SCT007 BKN015 OVC040
      TEMPO 0705/0707 2SM SHRA BR BKN007
     FM070900 03012KT P6SM SCT015 OVC050
     FM071300 05012KT P6SM BKN080=

USA.gov is the U.S. government's official web portal to all federal, state and local government web resources and services.